Santa Rosa — A8ZS7 — position and weather

sailwx.info

Track history (hours):
 
Tides and Currents Weather Stations Pressure Air Temp Water Temp Dewpoint Dewpoint Depression Visibility Wind Speed Wind Dir Waves Ship Positions

Santa Rosa

Last reported at 2014-Jul-28 14:33 UTC. Time now 2014-Jul-28 22:34 UTC.
Position N 01°17' E 103°45'.

Length 300 m; draft 11 m.

Type: Ship (hazmat cat D). MMSI: 636092266.

Date/timePositionNaut miles runAvg speedWind from/ knotsBaromVisibWave heightAir tempDewpointWater temp
2014-Jul-28 14:33N 01°17' E 103°45'0 0.0
2014-Jul-28 12:06N 01°17' E 103°45'0 0.0
2014-Jul-28 11:33N 01°17' E 103°45'0 0.0
2014-Jul-28 10:27N 01°17' E 103°45'0 0.0
2014-Jul-28 08:21N 01°17' E 103°45'0 0.0
2014-Jul-28 01:21N 01°17' E 103°45'0 0.0
2014-Jul-28 00:33N 01°17' E 103°45'2 1.6
2014-Jul-27 23:33N 01°16' E 103°46'5 4.8
2014-Jul-27 22:33N 01°12' E 103°50'9 9.0
2014-Jul-27 21:33N 01°15' E 103°58'19312.4
2014-Jul-27 06:00N 03°54' E 105°48'36215.1 160 / 61010.510.8 31.024.628.0
2014-Jul-26 06:00N 08°54' E 109°12'9115.2 220 / 201010.710.8 31.023.427.0
2014-Jul-26 00:00N 10°12' E 110°00'34714.5 210 / 191009.210.8 29.028.327.0
2014-Jul-25 00:00N 15°18' E 112°48'8013.3 210 / 151005.610.8 30.025.328.0
2014-Jul-24 18:00N 16°36' E 113°06'34713.1 230 / 171004.610.8 29.025.6
2014-Jul-23 15:33N 22°19' E 114°06'4 0.2
2014-Jul-23 00:21N 22°21' E 114°03'911.4
2014-Jul-22 23:33N 22°24' E 113°53'5 0.4
2014-Jul-22 10:33N 22°29' E 113°52'10 9.6
2014-Jul-22 09:33N 22°20' E 113°49'1110.5
2014-Jul-22 08:33N 22°10' E 113°51'7 6.5
2014-Jul-22 07:31N 22°08' E 113°58'17317.3
2014-Jul-21 21:33N 22°53' E 116°58'1615.7
2014-Jul-21 20:33N 23°03' E 117°11'415.9
2014-Jul-21 20:18N 23°06' E 117°14'1415.9
2014-Jul-21 19:24N 23°15' E 117°26'1416.1
2014-Jul-21 18:33N 23°24' E 117°37'1616.4
2014-Jul-21 17:33N 23°34' E 117°52'1716.7
2014-Jul-21 16:33N 23°44' E 118°06'1717.0
2014-Jul-21 15:33N 23°55' E 118°21'5717.7
2014-Jul-21 12:21N 24°29' E 119°10'30416.5
2014-Jul-20 18:00N 28°42' E 122°18'3018.3 160 / 61007.510.8 0.529.425.428.0
2014-Jul-20 16:22N 29°10' E 122°30'1316.2
2014-Jul-20 15:33N 29°23' E 122°30'1716.7
2014-Jul-20 14:33N 29°39' E 122°26'1414.4
2014-Jul-20 13:33N 29°49' E 122°14'1010.0
2014-Jul-20 12:33N 29°47' E 122°03'2 2.3
2014-Jul-20 11:33N 29°46' E 122°00'0 0.0
2014-Jul-20 10:18N 29°46' E 122°00'0 0.0
2014-Jul-20 09:31N 29°46' E 122°00'0 0.0
2014-Jul-20 08:30N 29°46' E 122°00'0 0.0
2014-Jul-20 07:30N 29°46' E 122°00'0 0.0
2014-Jul-20 06:12N 29°46' E 122°00'0 0.0
2014-Jul-20 05:30N 29°46' E 122°00'0 0.0
2014-Jul-20 04:18N 29°46' E 122°00'0 0.0
2014-Jul-20 03:24N 29°46' E 122°00'0 0.0
2014-Jul-20 02:24N 29°46' E 122°00'0 0.0
2014-Jul-20 01:30N 29°46' E 122°00'0 0.0
2014-Jul-20 00:31N 29°46' E 122°00'0 0.0
2014-Jul-19 23:18N 29°46' E 122°00'0 0.0
2014-Jul-19 21:30N 29°46' E 122°00'0 0.0
2014-Jul-19 20:30N 29°46' E 122°00'2 1.9
2014-Jul-19 19:33N 29°47' E 122°02'1010.0
2014-Jul-19 18:33N 29°51' E 122°12'1010.1
2014-Jul-19 17:33N 29°44' E 122°22'1111.3
2014-Jul-19 16:34N 29°42' E 122°34'1817.5
2014-Jul-19 15:33N 29°51' E 122°52'1818.0
2014-Jul-19 14:32N 30°08' E 122°59'1818.9
2014-Jul-19 13:33N 30°24' E 122°48'1919.3
2014-Jul-19 12:33N 30°31' E 122°27'1515.3
2014-Jul-19 11:33N 30°34' E 122°10'6 6.0
2014-Jul-19 10:33N 30°37' E 122°04'0 0.0
2014-Jul-19 01:29N 30°37' E 122°04'  
Track history (hours):
 
Tides and Currents Weather Stations Pressure Air Temp Water Temp Dewpoint Dewpoint Depression Visibility Wind Speed Wind Dir Waves Ship Positions

Santa Rosa

Last reported at 2014-Jul-28 14:33 UTC. Time now 2014-Jul-28 22:34 UTC.
Position N 01°17' E 103°45'.

Length 300 m; draft 11 m.

Type: Ship (hazmat cat D). MMSI: 636092266.

Date/timePositionNaut miles runAvg speedWind from/ knotsBaromVisibWave heightAir tempDewpointWater temp
2014-Jul-28 14:33N 01°17' E 103°45'0 0.0
2014-Jul-28 12:06N 01°17' E 103°45'0 0.0
2014-Jul-28 11:33N 01°17' E 103°45'0 0.0
2014-Jul-28 10:27N 01°17' E 103°45'0 0.0
2014-Jul-28 08:21N 01°17' E 103°45'0 0.0
2014-Jul-28 01:21N 01°17' E 103°45'0 0.0
2014-Jul-28 00:33N 01°17' E 103°45'2 1.6
2014-Jul-27 23:33N 01°16' E 103°46'5 4.8
2014-Jul-27 22:33N 01°12' E 103°50'9 9.0
2014-Jul-27 21:33N 01°15' E 103°58'19312.4
2014-Jul-27 06:00N 03°54' E 105°48'36215.1 160 / 61010.510.8 31.024.628.0
2014-Jul-26 06:00N 08°54' E 109°12'9115.2 220 / 201010.710.8 31.023.427.0
2014-Jul-26 00:00N 10°12' E 110°00'34714.5 210 / 191009.210.8 29.028.327.0
2014-Jul-25 00:00N 15°18' E 112°48'8013.3 210 / 151005.610.8 30.025.328.0
2014-Jul-24 18:00N 16°36' E 113°06'34713.1 230 / 171004.610.8 29.025.6
2014-Jul-23 15:33N 22°19' E 114°06'4 0.2
2014-Jul-23 00:21N 22°21' E 114°03'911.4
2014-Jul-22 23:33N 22°24' E 113°53'5 0.4
2014-Jul-22 10:33N 22°29' E 113°52'10 9.6
2014-Jul-22 09:33N 22°20' E 113°49'1110.5
2014-Jul-22 08:33N 22°10' E 113°51'7 6.5
2014-Jul-22 07:31N 22°08' E 113°58'17317.3
2014-Jul-21 21:33N 22°53' E 116°58'1615.7
2014-Jul-21 20:33N 23°03' E 117°11'415.9
2014-Jul-21 20:18N 23°06' E 117°14'1415.9
2014-Jul-21 19:24N 23°15' E 117°26'1416.1
2014-Jul-21 18:33N 23°24' E 117°37'1616.4
2014-Jul-21 17:33N 23°34' E 117°52'1716.7
2014-Jul-21 16:33N 23°44' E 118°06'1717.0
2014-Jul-21 15:33N 23°55' E 118°21'5717.7
2014-Jul-21 12:21N 24°29' E 119°10'30416.5
2014-Jul-20 18:00N 28°42' E 122°18'3018.3 160 / 61007.510.8 0.529.425.428.0
2014-Jul-20 16:22N 29°10' E 122°30'1316.2
2014-Jul-20 15:33N 29°23' E 122°30'1716.7
2014-Jul-20 14:33N 29°39' E 122°26'1414.4
2014-Jul-20 13:33N 29°49' E 122°14'1010.0
2014-Jul-20 12:33N 29°47' E 122°03'2 2.3
2014-Jul-20 11:33N 29°46' E 122°00'0 0.0
2014-Jul-20 10:18N 29°46' E 122°00'0 0.0
2014-Jul-20 09:31N 29°46' E 122°00'0 0.0
2014-Jul-20 08:30N 29°46' E 122°00'0 0.0
2014-Jul-20 07:30N 29°46' E 122°00'0 0.0
2014-Jul-20 06:12N 29°46' E 122°00'0 0.0
2014-Jul-20 05:30N 29°46' E 122°00'0 0.0
2014-Jul-20 04:18N 29°46' E 122°00'0 0.0
2014-Jul-20 03:24N 29°46' E 122°00'0 0.0
2014-Jul-20 02:24N 29°46' E 122°00'0 0.0
2014-Jul-20 01:30N 29°46' E 122°00'0 0.0
2014-Jul-20 00:31N 29°46' E 122°00'0 0.0
2014-Jul-19 23:18N 29°46' E 122°00'0 0.0
2014-Jul-19 21:30N 29°46' E 122°00'0 0.0
2014-Jul-19 20:30N 29°46' E 122°00'2 1.9
2014-Jul-19 19:33N 29°47' E 122°02'1010.0
2014-Jul-19 18:33N 29°51' E 122°12'1010.1
2014-Jul-19 17:33N 29°44' E 122°22'1111.3
2014-Jul-19 16:34N 29°42' E 122°34'1817.5
2014-Jul-19 15:33N 29°51' E 122°52'1818.0
2014-Jul-19 14:32N 30°08' E 122°59'1818.9
2014-Jul-19 13:33N 30°24' E 122°48'1919.3
2014-Jul-19 12:33N 30°31' E 122°27'1515.3
2014-Jul-19 11:33N 30°34' E 122°10'6 6.0
2014-Jul-19 10:33N 30°37' E 122°04'0 0.0
2014-Jul-19 01:29N 30°37' E 122°04'  

Dump ship's entire track history